Flight Track Log - Related Links

Times and Time Zones

All times are in EDT time to prevent confusion due to time zone crossing. See the DAL7317 flight status page for this flight to view local times or setup timezone preferences in your user account.

Time Position Orientation Groundspeed Altitude Reporting Facility
EDT Latitude Longitude Course Direction KTS MPH feet Rate Location/Type
09:16AM 40.8500 -73.9333 270° West 220 253 3,200  Level New York TRACON
09:17AM 40.9000 -73.9833 323° Northwest 258 297 5,900 2,713 Climbing New York TRACON
09:18AM 40.7834 -74.4581 270° West  Level FlightAware Approximate
09:18AM 40.9167 -74.0667 285° West 280 322 8,400  Level New York TRACON
09:19AM 40.7834 -74.6071 270° West  Level FlightAware Approximate
09:19AM 40.9000 -74.1667 258° West 280 322 11,200  Level New York TRACON
09:20AM 40.7833 -74.7561 270° West  Level FlightAware Approximate
09:20AM 40.8833 -74.2833 259° West 296 341 13,500  Level New York TRACON
09:21AM 40.7833 -74.9051 270° West  Level FlightAware Approximate
09:21AM 40.8667 -74.4000 259° West 320 368 15,500  Level New York TRACON
09:23AM 40.8464 -74.6992 265° West 349 402 17,300 865 Climbing New York Center
09:24AM 40.8339 -74.8164 262° West 356 410 18,500 1,261 Climbing New York Center
09:25AM 40.8211 -74.9444 263° West 362 417 19,800 1,400 Climbing New York Center
09:26AM 40.8078 -75.0836 263° West 370 426 21,300 1,339 Climbing New York Center
09:27AM 40.7903 -75.2167 260° West 370 426 22,500 1,210 Climbing New York Center
09:28AM 40.7661 -75.3606 258° West 389 448 23,700 1,119 Climbing New York Center
09:29AM 40.7233 -75.4972 248° West 389 448 24,700 950 Climbing New York Center
09:30AM 40.6742 -75.6306 244° Southwest 404 465 25,600 885 Climbing New York Center
09:31AM 40.6222 -75.7719 244° Southwest 416 479 26,500 992 Climbing New York Center
09:32AM 40.5683 -75.9128 243° Southwest 421 484 27,600 1,100 Climbing New York Center
09:33AM 40.5097 -76.0586 242° Southwest 444 511 28,700 1,220 Climbing New York Center
09:34AM 40.4533 -76.2042 243° Southwest 444 511 30,000 1,271 Climbing New York Center
09:35AM 40.3986 -76.3472 243° Southwest 444 511 31,200 1,190 Climbing New York Center
09:36AM 40.3456 -76.4953 245° Southwest 444 511 32,400 1,082 Climbing New York Center
09:37AM 40.3192 -76.6511 258° West 444 511 33,400 942 Climbing New York Center
09:38AM 40.2928 -76.8042 257° West 439 505 34,300 950 Climbing New York Center
09:39AM 40.2697 -76.9653 259° West 445 512 35,300 857 Climbing New York Center
09:40AM 40.2447 -77.1236 258° West 445 512 36,000 353 Climbing New York Center
09:41AM 40.2189 -77.2925 259° West 445 512 36,000  Level New York Center
09:42AM 40.1983 -77.4375 260° West 442 509 36,000  Level New York Center
09:46AM 40.1361 -78.0058 262° West 486 559 36,000  Level Cleveland Center
09:47AM 40.1458 -78.1739 274° West 475 547 36,000  Level Cleveland Center
09:48AM 40.1536 -78.3419 274° West 470 541 36,000  Level Cleveland Center
09:49AM 40.1611 -78.5158 273° West 470 541 36,000  Level Cleveland Center
09:50AM 40.1661 -78.6839 272° West 470 541 36,000  Level Cleveland Center
09:51AM 40.1728 -78.8522 273° West 470 541 36,000  Level Cleveland Center
09:52AM 40.1794 -79.0233 273° West 470 541 36,000  Level Cleveland Center
09:53AM 40.1839 -79.1944 272° West 476 548 36,000  Level Cleveland Center
09:54AM 40.1942 -79.3628 275° West 476 548 36,000  Level Cleveland Center
09:55AM 40.2000 -79.5339 273° West 476 548 36,000  Level Cleveland Center
09:56AM 40.2033 -79.7022 272° West 476 548 36,000  Level Cleveland Center
09:57AM 40.2089 -79.8764 272° West 476 548 36,000  Level Cleveland Center
09:58AM 40.2139 -80.0639 272° West 476 548 36,000  Level Cleveland Center
09:59AM 40.2167 -80.2378 271° West 471 542 36,000  Level Cleveland Center
10:00AM 40.2233 -80.4092 273° West 476 548 36,000  Level Cleveland Center
10:01AM 40.2278 -80.5803 272° West 476 548 36,000  Level Cleveland Center
10:03AM 40.2347 -80.9831 271° West 475 547 36,000  Level Indianapolis Center
10:04AM 40.2383 -81.1875 271° West 478 550 36,000  Level Indianapolis Center
10:05AM 40.2414 -81.3619 271° West 475 547 36,000  Level Indianapolis Center
10:06AM 40.2439 -81.5383 271° West 479 551 36,000  Level Indianapolis Center
10:07AM 40.2461 -81.7139 271° West 477 549 36,000  Level Indianapolis Center
10:08AM 40.2486 -81.8903 271° West 477 549 36,000 -387 Level Indianapolis Center
10:09AM 40.2508 -82.0656 271° West 477 549 35,200 -823 Descending Indianapolis Center
10:10AM 40.2522 -82.2414 271° West 478 550 34,300 -581 Descending Indianapolis Center
10:11AM 40.2544 -82.4169 271° West 477 549 34,000 -145 Descending Indianapolis Center
10:12AM 40.2556 -82.5903 271° West 473 544 34,000 -339 Level Indianapolis Center
10:13AM 40.2558 -82.7944 270° West 477 549 33,300 -1,152 Descending Indianapolis Center
10:15AM 40.2564 -82.9572 270° West 476 548 31,600 -1,584 Descending Indianapolis Center
10:16AM 40.2578 -83.1328 271° West 481 554 30,000 -774 Descending Indianapolis Center
10:17AM 40.2569 -83.3089 270° West 483 556 30,000  Level Indianapolis Center
10:18AM 40.2572 -83.5156 270° West 487 560 30,000  Level Indianapolis Center
10:19AM 40.2578 -83.6914 270° West 484 557 30,000  Level Indianapolis Center
10:20AM 40.2564 -83.8661 269° West 480 552 30,000  Level Indianapolis Center
10:21AM 40.2553 -84.0422 270° West 482 555 30,000 -194 Level Indianapolis Center
10:22AM 40.2531 -84.2189 269° West 484 557 29,600 -774 Descending Indianapolis Center
10:23AM 40.2514 -84.4267 269° West 487 560 28,400 -1,065 Descending Indianapolis Center
10:24AM 40.2497 -84.6033 269° West 484 557 27,400 -1,016 Descending Indianapolis Center
10:25AM 40.2472 -84.7767 269° West 475 547 26,300 -1,355 Descending Indianapolis Center
10:26AM 40.2456 -84.9328 269° West 466 536 24,600 -2,129 Descending Indianapolis Center
10:27AM 40.2428 -85.0925 269° West 442 509 21,900 -2,855 Descending Indianapolis Center
10:28AM 40.2400 -85.2700 269° West 410 472 18,700 -2,661 Descending Indianapolis Center
10:29AM 40.2322 -85.4100 266° West 392 451 16,400 -2,129 Descending Indianapolis Center
10:30AM 40.1742 -85.5272 237° Southwest 384 442 14,300 -1,839 Descending Indianapolis Center
10:31AM 40.1142 -85.6372 235° Southwest 374 430 12,600 -1,500 Descending Indianapolis Center
10:32AM 40.0569 -85.7450 235° Southwest 366 421 11,200 -1,258 Descending Indianapolis Center
10:33AM 39.9892 -85.8722 235° Southwest 357 411 10,000 -1,306 Descending Indianapolis Center
10:34AM 39.9428 -85.9575 235° Southwest 289 333 8,500 -1,742 Descending Indianapolis Center
10:35AM 39.8986 -86.0406 235° Southwest 280 322 6,400 -1,920 Descending Indianapolis Center
10:36AM 39.8531 -86.1106 230° Southwest 267 307 4,500 -1,536 Descending Indianapolis Center
10:37AM 39.8053 -86.1697 224° Southwest 251 289 3,200 -1,161 Descending Indianapolis Center
10:38AM 39.7667 -86.2194 225° Southwest 219 252 2,100 -1,065 Descending Indianapolis Center

Login

Don't have an account? Register now (free) for customized features, flight alerts, and more!